createdAt,value
2022-12-19T00:00:34.283Z,-6.86
2022-12-19T00:05:39.251Z,-7.05
2022-12-19T00:10:41.604Z,-7.13
2022-12-19T00:15:43.464Z,-7.13
2022-12-19T00:20:45.299Z,-6.96
2022-12-19T00:25:47.087Z,-6.91
2022-12-19T00:30:51.751Z,-6.85
2022-12-19T00:36:22.930Z,-6.75
2022-12-19T00:41:26.359Z,-6.70
2022-12-19T00:46:32.782Z,-6.62
2022-12-19T00:51:36.749Z,-6.59
2022-12-19T00:56:38.697Z,-6.60
2022-12-19T01:01:43.728Z,-6.57
2022-12-19T01:06:48.409Z,-6.58
2022-12-19T01:12:09.263Z,-6.70
2022-12-19T01:17:11.752Z,-6.86
2022-12-19T01:22:14.099Z,-6.99
2022-12-19T01:27:16.455Z,-7.07
2022-12-19T01:32:18.203Z,-7.15
2022-12-19T01:37:20.629Z,-7.22
2022-12-19T01:42:24.266Z,-7.22
2022-12-19T01:47:26.433Z,-7.19
2022-12-19T01:52:28.356Z,-7.11
2022-12-19T01:57:30.229Z,-7.03
2022-12-19T02:02:36.064Z,-6.96
2022-12-19T02:07:39.861Z,-6.90
2022-12-19T02:12:43.820Z,-6.86
2022-12-19T02:18:17.496Z,-6.82
2022-12-19T02:23:28.139Z,-6.79
2022-12-19T02:28:55.301Z,-6.80
2022-12-19T02:34:23.062Z,-6.83
2022-12-19T02:39:47.064Z,-6.87
2022-12-19T02:44:52.119Z,-6.92
2022-12-19T02:49:54.013Z,-6.96
2022-12-19T02:55:01.852Z,-6.98
2022-12-19T03:00:17.886Z,-7.02
2022-12-19T03:05:32.044Z,-7.07
2022-12-19T03:10:54.444Z,-7.13
2022-12-19T03:15:58.463Z,-7.16
2022-12-19T03:21:12.738Z,-7.17
2022-12-19T03:26:37.731Z,-7.16
2022-12-19T03:31:40.786Z,-7.19
2022-12-19T03:36:51.827Z,-7.22
2022-12-19T03:42:13.423Z,-7.29
2022-12-19T03:47:32.189Z,-7.40
2022-12-19T03:52:47.044Z,-7.55
2022-12-19T03:58:12.704Z,-7.71
2022-12-19T04:03:19.921Z,-7.86
2022-12-19T04:08:24.044Z,-7.95
2022-12-19T04:13:41.300Z,-8.06
2022-12-19T04:18:53.378Z,-8.17
2022-12-19T04:24:02.834Z,-8.29
2022-12-19T04:29:07.353Z,-8.40
2022-12-19T04:34:09.121Z,-8.41
2022-12-19T04:39:10.963Z,-8.41
2022-12-19T04:44:12.769Z,-8.39
2022-12-19T04:49:14.775Z,-8.41
2022-12-19T04:54:16.913Z,-8.42
2022-12-19T04:59:18.788Z,-8.42
2022-12-19T05:04:20.660Z,-8.39
2022-12-19T05:09:22.552Z,-8.34
2022-12-19T05:14:24.492Z,-8.32
2022-12-19T05:19:26.271Z,-8.30
2022-12-19T05:24:28.122Z,-8.29
2022-12-19T05:29:29.948Z,-8.27
2022-12-19T05:34:32.238Z,-8.28
2022-12-19T05:39:35.016Z,-8.26
2022-12-19T05:44:36.788Z,-8.24
2022-12-19T05:49:38.642Z,-8.23
2022-12-19T05:54:40.560Z,-8.24
2022-12-19T05:59:42.458Z,-8.26
2022-12-19T06:04:44.369Z,-8.28
2022-12-19T06:09:46.227Z,-8.31
2022-12-19T06:14:48.065Z,-8.36
2022-12-19T06:19:49.862Z,-8.39
2022-12-19T06:24:51.622Z,-8.43
2022-12-19T06:29:53.615Z,-8.46
2022-12-19T06:35:04.155Z,-8.49
2022-12-19T06:40:07.612Z,-8.55
2022-12-19T06:45:09.954Z,-8.64
2022-12-19T06:50:11.805Z,-8.74
2022-12-19T06:55:13.846Z,-8.85
2022-12-19T07:00:16.934Z,-8.94
2022-12-19T07:05:19.256Z,-9.00
2022-12-19T07:10:21.055Z,-9.00
2022-12-19T07:15:23.937Z,-8.96
2022-12-19T07:20:28.391Z,-8.89
2022-12-19T07:25:30.354Z,-8.71
2022-12-19T07:30:32.138Z,-8.51
2022-12-19T07:35:34.051Z,-8.29
2022-12-19T07:40:36.334Z,-8.03
2022-12-19T07:45:38.499Z,-7.78
2022-12-19T07:50:41.797Z,-7.55
2022-12-19T07:55:43.684Z,-7.33
2022-12-19T08:00:45.595Z,-7.11
2022-12-19T08:05:47.465Z,-6.86
2022-12-19T08:10:49.341Z,-6.59
2022-12-19T08:15:51.265Z,-5.98
2022-12-19T08:20:53.753Z,-5.55
2022-12-19T08:26:03.889Z,-5.57
2022-12-19T08:31:11.553Z,-5.69
2022-12-19T08:36:16.064Z,-5.86
2022-12-19T08:41:18.515Z,-5.94
2022-12-19T08:46:21.344Z,-6.00
2022-12-19T08:51:23.347Z,-6.06
2022-12-19T08:56:25.226Z,-5.92
2022-12-19T09:01:27.102Z,-5.60
2022-12-19T09:06:29.241Z,-5.42
2022-12-19T09:11:31.441Z,-5.20
2022-12-19T09:16:33.263Z,-4.86
2022-12-19T09:21:35.080Z,-4.48
2022-12-19T09:26:39.391Z,-4.11
2022-12-19T09:31:41.338Z,-3.71
2022-12-19T09:36:43.148Z,-3.41
2022-12-19T09:42:02.449Z,-3.22
2022-12-19T09:47:13.375Z,-3.18
2022-12-19T09:52:36.024Z,-3.12
2022-12-19T09:57:50.060Z,-3.10
2022-12-19T10:03:17.028Z,-2.96
2022-12-19T10:08:31.695Z,-2.74
2022-12-19T10:13:53.109Z,-2.47
2022-12-19T10:19:00.391Z,-2.17
2022-12-19T10:24:38.948Z,-1.86
2022-12-19T10:30:02.138Z,-1.52
2022-12-19T10:35:14.491Z,-1.14
2022-12-19T10:40:34.780Z,-0.76
2022-12-19T10:45:39.852Z,-0.60
2022-12-19T10:50:42.794Z,-0.47
2022-12-19T10:55:50.856Z,-0.19
2022-12-19T11:01:40.341Z,0.04
2022-12-19T11:06:51.841Z,0.37
2022-12-19T11:15:48.716Z,0.53
2022-12-19T11:27:28.824Z,0.62
2022-12-19T11:30:05.170Z,0.72
2022-12-19T11:30:46.257Z,0.83
2022-12-19T11:34:02.798Z,0.95
2022-12-19T11:39:10.788Z,1.07
2022-12-19T11:44:41.720Z,1.21
2022-12-19T11:50:11.784Z,1.42
2022-12-19T11:55:45.441Z,1.59
2022-12-19T12:00:58.477Z,1.70
2022-12-19T12:06:01.192Z,1.78
2022-12-19T12:19:18.858Z,1.89
2022-12-19T12:31:26.256Z,2.16
2022-12-19T12:31:28.730Z,2.04
2022-12-19T12:32:00.975Z,2.26
2022-12-19T12:35:48.608Z,2.10
2022-12-19T12:40:40.023Z,2.13
2022-12-19T12:45:45.047Z,2.26
2022-12-19T12:50:54.863Z,2.36
2022-12-19T12:56:00.823Z,2.37
2022-12-19T13:01:29.730Z,2.36
2022-12-19T13:06:40.059Z,2.28
2022-12-19T13:12:22.080Z,2.13
2022-12-19T13:17:32.943Z,2.02
2022-12-19T13:22:34.658Z,1.93
2022-12-19T13:27:47.850Z,1.84
2022-12-19T13:32:49.582Z,1.78
2022-12-19T13:39:55.641Z,1.78
2022-12-19T13:43:49.371Z,1.67
2022-12-19T13:48:56.684Z,1.59
2022-12-19T13:54:00.079Z,1.57
2022-12-19T13:59:05.012Z,1.52
2022-12-19T14:04:11.483Z,1.44
2022-12-19T14:11:27.196Z,1.36
2022-12-19T14:15:13.578Z,1.27
2022-12-19T14:22:06.636Z,1.16
2022-12-19T14:28:19.303Z,1.07
2022-12-19T14:31:19.925Z,0.98
2022-12-19T14:36:26.723Z,0.87
2022-12-19T14:41:47.321Z,0.75
2022-12-19T14:52:25.701Z,0.54
2022-12-19T14:54:48.290Z,0.30
2022-12-19T14:58:53.053Z,0.18
2022-12-19T15:04:49.466Z,0.05
2022-12-19T15:10:58.786Z,0.01
2022-12-19T15:14:59.273Z,-0.03
2022-12-19T15:20:01.895Z,0.00
2022-12-19T15:25:03.945Z,-0.00
2022-12-19T15:30:15.952Z,0.02
2022-12-19T15:35:18.874Z,0.00
2022-12-19T15:40:20.698Z,-0.11
2022-12-19T15:45:23.165Z,-0.07
2022-12-19T15:50:31.746Z,0.10
2022-12-19T15:55:33.572Z,0.07
2022-12-19T16:00:36.854Z,0.11
2022-12-19T16:05:38.800Z,0.03
2022-12-19T16:10:42.234Z,-0.02
2022-12-19T16:15:44.432Z,0.05
2022-12-19T16:20:47.874Z,0.05
2022-12-19T16:25:50.809Z,0.03
2022-12-19T16:30:53.404Z,-0.02
2022-12-19T16:36:05.754Z,0.02
2022-12-19T16:41:19.367Z,0.03
2022-12-19T16:46:23.734Z,0.17
2022-12-19T16:51:27.661Z,0.26
2022-12-19T16:56:37.479Z,0.36
2022-12-19T17:01:39.380Z,0.38
2022-12-19T17:06:42.296Z,0.42
2022-12-19T17:11:46.464Z,0.49
2022-12-19T17:16:49.314Z,0.51
2022-12-19T17:21:52.345Z,0.59
2022-12-19T17:26:54.293Z,0.59
2022-12-19T17:31:56.083Z,0.62
2022-12-19T17:37:00.489Z,0.67
2022-12-19T17:42:21.883Z,0.60
2022-12-19T17:47:24.346Z,0.66
2022-12-19T17:52:26.112Z,0.60
2022-12-19T17:57:27.843Z,0.71
2022-12-19T18:02:29.711Z,0.70
2022-12-19T18:07:31.888Z,0.66
2022-12-19T18:12:33.629Z,0.73
2022-12-19T18:17:35.463Z,0.74
2022-12-19T18:22:37.284Z,0.74
2022-12-19T18:27:40.101Z,0.74
2022-12-19T18:32:55.143Z,0.77
2022-12-19T18:38:00.176Z,0.78
2022-12-19T18:43:02.053Z,0.85
2022-12-19T18:48:07.936Z,0.93
2022-12-19T18:53:15.918Z,0.97
2022-12-19T18:58:18.866Z,0.96
2022-12-19T19:03:26.831Z,0.96
2022-12-19T19:08:30.935Z,0.92
2022-12-19T19:13:42.470Z,0.90
2022-12-19T19:18:46.426Z,0.93
2022-12-19T19:24:26.560Z,0.95
2022-12-19T19:29:28.340Z,0.96
2022-12-19T19:34:34.511Z,0.95
2022-12-19T19:39:36.329Z,0.97
2022-12-19T19:44:38.140Z,1.12
2022-12-19T19:49:40.064Z,1.16
2022-12-19T19:54:41.954Z,1.25
2022-12-19T19:59:44.755Z,1.29
2022-12-19T20:04:46.650Z,1.23
2022-12-19T20:09:48.373Z,1.23
2022-12-19T20:14:50.293Z,1.29
2022-12-19T20:19:52.210Z,1.33
2022-12-19T20:24:54.102Z,1.26
2022-12-19T20:29:56.800Z,1.24
2022-12-19T20:34:58.888Z,1.31
2022-12-19T20:40:02.248Z,1.24
2022-12-19T20:45:04.361Z,1.30
2022-12-19T20:50:07.591Z,1.38
2022-12-19T20:55:10.892Z,1.36
2022-12-19T21:00:14.796Z,1.34
2022-12-19T21:05:17.406Z,1.39
2022-12-19T21:10:20.554Z,1.44
2022-12-19T21:15:22.297Z,1.51
2022-12-19T21:20:28.215Z,1.55
2022-12-19T21:25:34.292Z,1.57
2022-12-19T21:30:36.163Z,1.57
2022-12-19T21:35:38.081Z,1.59
2022-12-19T21:40:39.978Z,1.54
2022-12-19T21:45:41.808Z,1.54
2022-12-19T21:50:43.622Z,1.49
2022-12-19T21:55:45.513Z,1.42
2022-12-19T22:00:47.311Z,1.46
2022-12-19T22:05:49.222Z,1.43
2022-12-19T22:10:51.450Z,1.52
2022-12-19T22:15:59.203Z,1.57
2022-12-19T22:21:01.245Z,1.53
2022-12-19T22:26:06.027Z,1.44
2022-12-19T22:31:24.454Z,1.49
2022-12-19T22:36:28.977Z,1.40
2022-12-19T22:41:33.101Z,1.48
2022-12-19T22:46:37.159Z,1.45
2022-12-19T22:51:39.850Z,1.51
2022-12-19T22:56:42.269Z,1.57
2022-12-19T23:01:44.399Z,1.52
2022-12-19T23:06:46.499Z,1.49
2022-12-19T23:11:49.469Z,1.53
2022-12-19T23:16:51.445Z,1.55
2022-12-19T23:21:53.519Z,1.59
2022-12-19T23:26:55.439Z,1.51
2022-12-19T23:31:57.343Z,1.57
2022-12-19T23:37:10.639Z,1.56
2022-12-19T23:42:12.991Z,1.47
2022-12-19T23:47:15.149Z,1.44
2022-12-19T23:52:16.871Z,1.50
2022-12-19T23:57:18.625Z,1.50
